Yvonne K. — PBLX — position and weather

sailwx.info

Track history (hours):
 
Tides and Currents Weather Stations Pressure Air Temp Water Temp Dewpoint Dewpoint Depression Visibility Wind Speed Wind Dir Waves Ship Positions

Yvonne K.

Last reported at 2014-Nov-25 11:22 UTC. Time now 2014-Nov-28 01:30 UTC.
Position N 37°24' W 000°44'.

Length 90 m; draft 5.5 m.

Type: Cargo ship. MMSI: 244948000.

Date/timePositionNaut miles runAvg speedWind from/ knotsBaromVisibWave heightAir tempDewpointWater temp
2014-Nov-25 11:22N 37°24' W 000°44'9 8.4
2014-Nov-25 10:14N 37°17' W 000°53'7 8.5
2014-Nov-25 09:25N 37°13' W 000°60'222 9.3
2014-Nov-24 09:33N 35°59' W 005°20'228 8.1
2014-Nov-23 05:23N 37°25' W 009°43'  
2014-Nov-18 08:33N 50°37' E 000°24'9 9.1
2014-Nov-18 07:33N 50°41' E 000°37'9 8.9
2014-Nov-18 06:33N 50°45' E 000°49'10 8.8
2014-Nov-18 05:28N 50°51' E 001°01'10 9.7
2014-Nov-18 04:25N 50°57' E 001°14'910.9
2014-Nov-18 03:33N 51°03' E 001°25'1111.1
2014-Nov-18 02:33N 51°10' E 001°39'1010.0
2014-Nov-18 01:33N 51°18' E 001°49'9 9.0
2014-Nov-18 00:33N 51°25' E 001°58'8 8.2
2014-Nov-17 23:33N 51°32' E 002°06'157 8.7
2014-Nov-17 05:33N 53°31' E 004°53'9 8.5
2014-Nov-17 04:28N 53°34' E 005°08'7 7.9
2014-Nov-17 03:33N 53°37' E 005°19'8 7.5
2014-Nov-17 02:34N 53°39' E 005°31'7 7.1
2014-Nov-17 01:33N 53°41' E 005°43'7 7.5
2014-Nov-17 00:33N 53°44' E 005°54'8 8.2
2014-Nov-16 23:33N 53°46' E 006°08'50 9.2
2014-Nov-16 18:06N 53°59' E 007°30'5 8.7
2014-Nov-16 17:33N 54°01' E 007°37'9 8.5
2014-Nov-16 16:33N 54°01' E 007°52'8 8.5
2014-Nov-16 15:33N 54°01' E 008°06'9 8.7
2014-Nov-16 14:33N 54°00' E 008°21'10 9.9
2014-Nov-16 13:33N 53°58' E 008°37'1211.6
2014-Nov-16 12:33N 53°51' E 008°53'10 9.4
2014-Nov-16 11:31N 53°54' E 009°09'0 0.0
2014-Nov-16 10:33N 53°54' E 009°09'39 6.4
2014-Nov-16 04:28N 54°21' E 009°57'5 5.0
2014-Nov-16 03:34N 54°22' E 010°05'2 1.8
2014-Nov-16 02:33N 54°22' E 010°08'0 0.0
2014-Nov-16 01:28N 54°22' E 010°08'0 0.2
2014-Nov-16 00:29N 54°22' E 010°08'1 1.3
2014-Nov-15 23:33N 54°22' E 010°10'8 8.2
2014-Nov-15 22:33N 54°29' E 010°17'10 9.3
2014-Nov-15 21:31N 54°33' E 010°32'9 9.2
2014-Nov-15 20:31N 54°35' E 010°47'3110.2
2014-Nov-15 17:31N 54°29' E 011°39'9 9.4
2014-Nov-15 16:33N 54°27' E 011°54'9 9.4
2014-Nov-15 15:33N 54°28' E 012°10'10 9.0
2014-Nov-15 14:29N 54°34' E 012°22'  
Track history (hours):
 
Tides and Currents Weather Stations Pressure Air Temp Water Temp Dewpoint Dewpoint Depression Visibility Wind Speed Wind Dir Waves Ship Positions

Yvonne K.

Last reported at 2014-Nov-25 11:22 UTC. Time now 2014-Nov-28 01:30 UTC.
Position N 37°24' W 000°44'.

Length 90 m; draft 5.5 m.

Type: Cargo ship. MMSI: 244948000.

Date/timePositionNaut miles runAvg speedWind from/ knotsBaromVisibWave heightAir tempDewpointWater temp
2014-Nov-25 11:22N 37°24' W 000°44'9 8.4
2014-Nov-25 10:14N 37°17' W 000°53'7 8.5
2014-Nov-25 09:25N 37°13' W 000°60'222 9.3
2014-Nov-24 09:33N 35°59' W 005°20'228 8.1
2014-Nov-23 05:23N 37°25' W 009°43'  
2014-Nov-18 08:33N 50°37' E 000°24'9 9.1
2014-Nov-18 07:33N 50°41' E 000°37'9 8.9
2014-Nov-18 06:33N 50°45' E 000°49'10 8.8
2014-Nov-18 05:28N 50°51' E 001°01'10 9.7
2014-Nov-18 04:25N 50°57' E 001°14'910.9
2014-Nov-18 03:33N 51°03' E 001°25'1111.1
2014-Nov-18 02:33N 51°10' E 001°39'1010.0
2014-Nov-18 01:33N 51°18' E 001°49'9 9.0
2014-Nov-18 00:33N 51°25' E 001°58'8 8.2
2014-Nov-17 23:33N 51°32' E 002°06'157 8.7
2014-Nov-17 05:33N 53°31' E 004°53'9 8.5
2014-Nov-17 04:28N 53°34' E 005°08'7 7.9
2014-Nov-17 03:33N 53°37' E 005°19'8 7.5
2014-Nov-17 02:34N 53°39' E 005°31'7 7.1
2014-Nov-17 01:33N 53°41' E 005°43'7 7.5
2014-Nov-17 00:33N 53°44' E 005°54'8 8.2
2014-Nov-16 23:33N 53°46' E 006°08'50 9.2
2014-Nov-16 18:06N 53°59' E 007°30'5 8.7
2014-Nov-16 17:33N 54°01' E 007°37'9 8.5
2014-Nov-16 16:33N 54°01' E 007°52'8 8.5
2014-Nov-16 15:33N 54°01' E 008°06'9 8.7
2014-Nov-16 14:33N 54°00' E 008°21'10 9.9
2014-Nov-16 13:33N 53°58' E 008°37'1211.6
2014-Nov-16 12:33N 53°51' E 008°53'10 9.4
2014-Nov-16 11:31N 53°54' E 009°09'0 0.0
2014-Nov-16 10:33N 53°54' E 009°09'39 6.4
2014-Nov-16 04:28N 54°21' E 009°57'5 5.0
2014-Nov-16 03:34N 54°22' E 010°05'2 1.8
2014-Nov-16 02:33N 54°22' E 010°08'0 0.0
2014-Nov-16 01:28N 54°22' E 010°08'0 0.2
2014-Nov-16 00:29N 54°22' E 010°08'1 1.3
2014-Nov-15 23:33N 54°22' E 010°10'8 8.2
2014-Nov-15 22:33N 54°29' E 010°17'10 9.3
2014-Nov-15 21:31N 54°33' E 010°32'9 9.2
2014-Nov-15 20:31N 54°35' E 010°47'3110.2
2014-Nov-15 17:31N 54°29' E 011°39'9 9.4
2014-Nov-15 16:33N 54°27' E 011°54'9 9.4
2014-Nov-15 15:33N 54°28' E 012°10'10 9.0
2014-Nov-15 14:29N 54°34' E 012°22'  

Dump ship's entire track history